createdAt,value
2022-09-16T04:18:49.187Z,100.00
2022-09-16T04:21:52.471Z,100.00
2022-09-16T04:24:55.277Z,100.00
2022-09-16T04:27:57.966Z,100.00
2022-09-16T04:31:02.521Z,100.00
2022-09-16T04:34:06.654Z,100.00
2022-09-16T04:37:09.310Z,100.00
2022-09-16T04:40:12.844Z,100.00
2022-09-16T04:43:15.361Z,100.00
2022-09-16T04:46:18.629Z,100.00
2022-09-16T04:49:21.129Z,100.00
2022-09-16T04:52:24.252Z,100.00
2022-09-16T04:55:26.671Z,100.00
2022-09-16T04:58:29.850Z,100.00
2022-09-16T05:01:34.948Z,100.00
2022-09-16T05:04:37.659Z,100.00
2022-09-16T05:07:40.084Z,100.00
2022-09-16T05:10:42.910Z,100.00
2022-09-16T05:13:45.673Z,100.00
2022-09-16T05:16:48.414Z,100.00
2022-09-16T05:19:50.889Z,100.00
2022-09-16T05:22:56.530Z,100.00
2022-09-16T05:26:14.501Z,100.00
2022-09-16T05:29:17.639Z,100.00
2022-09-16T05:32:20.209Z,100.00
2022-09-16T05:35:22.899Z,100.00
2022-09-16T05:38:25.379Z,100.00
2022-09-16T05:41:28.289Z,100.00
2022-09-16T05:44:32.384Z,100.00
2022-09-16T05:47:35.324Z,100.00
2022-09-16T05:50:37.925Z,100.00
2022-09-16T06:04:36.095Z,100.00
2022-09-16T06:07:38.907Z,100.00
2022-09-16T06:10:42.157Z,100.00
2022-09-16T06:13:44.889Z,100.00
2022-09-16T06:16:47.585Z,100.00
2022-09-16T06:19:50.337Z,100.00
2022-09-16T06:22:52.934Z,100.00
2022-09-16T06:26:04.620Z,100.00
2022-09-16T06:29:09.270Z,100.00
2022-09-16T06:32:12.090Z,100.00
2022-09-16T06:35:14.633Z,100.00
2022-09-16T06:38:17.398Z,100.00
2022-09-16T06:41:21.216Z,100.00
2022-09-16T06:44:23.986Z,100.00
2022-09-16T06:47:27.050Z,100.00
2022-09-16T06:50:30.010Z,100.00
2022-09-16T06:53:33.280Z,100.00
2022-09-16T06:56:37.799Z,100.00
2022-09-16T06:59:40.873Z,100.00
2022-09-16T07:02:43.844Z,100.00
2022-09-16T07:05:56.863Z,100.00
2022-09-16T07:08:59.817Z,100.00
2022-09-16T07:12:02.564Z,100.00
2022-09-16T07:15:05.856Z,100.00
2022-09-16T07:18:09.169Z,98.79
2022-09-16T07:21:11.993Z,96.57
2022-09-16T07:24:15.256Z,96.71
2022-09-16T07:27:18.254Z,92.56
2022-09-16T07:30:20.930Z,94.83
2022-09-16T07:33:23.737Z,91.45
2022-09-16T07:36:29.125Z,92.40
2022-09-16T07:39:31.892Z,90.00
2022-09-16T07:42:34.333Z,88.70
2022-09-16T07:45:37.206Z,87.51
2022-09-16T07:48:40.152Z,90.47
2022-09-16T07:51:43.504Z,89.10
2022-09-16T07:54:46.194Z,91.75
2022-09-16T07:57:48.954Z,89.64
2022-09-16T08:00:51.555Z,89.27
2022-09-16T08:03:55.857Z,90.60
2022-09-16T08:06:58.399Z,91.21
2022-09-16T08:10:01.450Z,90.58
2022-09-16T08:13:05.571Z,88.61
2022-09-16T08:16:11.923Z,87.20
2022-09-16T08:19:14.486Z,86.52
2022-09-16T08:22:17.454Z,90.76
2022-09-16T08:25:20.267Z,90.75
2022-09-16T08:28:23.073Z,89.61
2022-09-16T08:31:25.646Z,89.10
2022-09-16T08:34:28.423Z,86.86
2022-09-16T08:37:31.203Z,84.65
2022-09-16T08:40:36.607Z,87.87
2022-09-16T08:44:09.126Z,90.18
2022-09-16T08:47:32.524Z,87.91
2022-09-16T08:50:40.021Z,86.20
2022-09-16T08:53:52.610Z,88.07
2022-09-16T08:57:00.845Z,87.60
2022-09-16T09:00:13.843Z,85.84
2022-09-16T09:03:36.967Z,85.91
2022-09-16T09:06:58.624Z,84.65
2022-09-16T09:10:24.563Z,85.61
2022-09-16T09:13:38.917Z,85.28
2022-09-16T09:17:09.262Z,85.37
2022-09-16T09:20:24.440Z,85.18
2022-09-16T09:24:00.986Z,86.38
2022-09-16T09:27:28.634Z,83.59
2022-09-16T09:30:33.914Z,83.46
2022-09-16T09:34:08.846Z,81.82
2022-09-16T09:37:29.706Z,82.17
2022-09-16T09:40:39.361Z,82.36
2022-09-16T09:44:07.734Z,83.95
2022-09-16T09:47:25.320Z,81.29
2022-09-16T09:50:46.216Z,81.94
2022-09-16T09:53:56.984Z,80.55
2022-09-16T09:57:05.692Z,79.51
2022-09-16T10:00:18.728Z,77.73
2022-09-16T10:03:21.944Z,75.25
2022-09-16T10:06:34.334Z,76.56
2022-09-16T10:09:38.347Z,74.96
2022-09-16T10:12:41.036Z,74.47
2022-09-16T10:15:44.305Z,69.14
2022-09-16T10:19:23.959Z,69.79
2022-09-16T10:22:32.172Z,72.11
2022-09-16T10:25:35.159Z,71.53
2022-09-16T10:28:38.609Z,69.86
2022-09-16T10:31:42.828Z,68.25
2022-09-16T10:34:46.669Z,66.38
2022-09-16T10:37:55.830Z,68.15
2022-09-16T10:41:17.232Z,67.88
2022-09-16T10:44:33.757Z,69.32
2022-09-16T10:47:37.406Z,66.20
2022-09-16T10:50:40.171Z,67.35
2022-09-16T10:53:51.685Z,66.06
2022-09-16T10:56:54.812Z,67.38
2022-09-16T11:00:13.647Z,65.80
2022-09-16T11:03:50.381Z,67.27
2022-09-16T11:07:10.391Z,70.24
2022-09-16T11:10:36.482Z,72.27
2022-09-16T11:13:54.882Z,69.08
2022-09-16T11:17:16.089Z,65.39
2022-09-16T11:20:23.482Z,65.06
2022-09-16T11:24:17.364Z,64.12
2022-09-16T11:27:55.069Z,65.08
2022-09-16T11:31:28.017Z,64.61
2022-09-16T11:34:49.420Z,64.18
2022-09-16T11:37:56.103Z,66.16
2022-09-16T11:41:19.629Z,62.83
2022-09-16T11:44:53.969Z,62.07
2022-09-16T11:48:48.065Z,58.91
2022-09-16T11:52:05.270Z,58.86
2022-09-16T11:56:01.053Z,56.47
2022-09-16T11:59:35.140Z,56.54
2022-09-16T12:02:52.554Z,55.02
2022-09-16T12:06:08.995Z,58.38
2022-09-16T12:09:17.426Z,58.76
2022-09-16T12:12:24.108Z,55.76
2022-09-16T12:18:45.529Z,56.52
2022-09-16T12:25:18.501Z,58.68
2022-09-16T12:28:27.833Z,57.52
2022-09-16T12:31:50.362Z,58.70
2022-09-16T12:35:06.226Z,57.80
2022-09-16T12:38:20.996Z,57.52
2022-09-16T12:41:42.049Z,59.18
2022-09-16T12:44:54.289Z,59.89
2022-09-16T12:48:21.401Z,59.11
2022-09-16T12:51:39.322Z,59.72
2022-09-16T12:55:26.690Z,61.05
2022-09-16T12:58:38.456Z,60.47
2022-09-16T13:01:48.296Z,57.95
2022-09-16T13:04:58.150Z,58.08
2022-09-16T13:08:06.815Z,55.91
2022-09-16T13:14:48.398Z,56.73
2022-09-16T13:17:53.227Z,56.11
2022-09-16T13:21:02.992Z,55.95
2022-09-16T13:24:37.747Z,58.88
2022-09-16T13:27:54.022Z,58.29
2022-09-16T13:31:09.439Z,57.71
2022-09-16T13:34:17.207Z,58.89
2022-09-16T13:37:26.617Z,60.00
2022-09-16T13:40:31.485Z,58.50
2022-09-16T13:43:42.195Z,58.29
2022-09-16T13:46:44.743Z,59.64
2022-09-16T13:49:56.343Z,59.33
2022-09-16T13:53:09.533Z,60.17
2022-09-16T13:56:30.503Z,60.93
2022-09-16T13:59:48.208Z,60.40
2022-09-16T14:03:15.022Z,61.18
2022-09-16T14:07:06.378Z,62.14
2022-09-16T14:10:46.850Z,62.69
2022-09-16T14:14:04.800Z,62.81
2022-09-16T14:17:23.762Z,62.84
2022-09-16T14:20:29.631Z,61.72
2022-09-16T14:23:33.741Z,62.26
2022-09-16T14:26:36.539Z,63.13
2022-09-16T14:29:39.083Z,65.44
2022-09-16T14:32:41.998Z,65.43
2022-09-16T14:35:47.465Z,65.92
2022-09-16T14:38:57.058Z,66.92
2022-09-16T14:42:03.606Z,67.05
2022-09-16T14:45:08.350Z,66.22
2022-09-16T14:48:13.261Z,65.79
2022-09-16T14:51:26.157Z,66.79
2022-09-16T14:54:29.476Z,66.35
2022-09-16T14:57:39.180Z,67.74
